sensor_id;sensor_type;location;lat;lon;timestamp;temperature;humidity
37285;DHT22;23172;53.550;9.964;2022-08-19T00:02:08;24.50;65.50
37285;DHT22;23172;53.550;9.964;2022-08-19T00:07:10;24.40;65.60
37285;DHT22;23172;53.550;9.964;2022-08-19T00:12:14;24.40;65.80
37285;DHT22;23172;53.550;9.964;2022-08-19T00:17:15;24.40;66.00
37285;DHT22;23172;53.550;9.964;2022-08-19T00:22:17;24.30;66.00
37285;DHT22;23172;53.550;9.964;2022-08-19T00:27:20;24.20;66.30
37285;DHT22;23172;53.550;9.964;2022-08-19T00:32:22;24.10;66.70
37285;DHT22;23172;53.550;9.964;2022-08-19T00:37:24;24.10;66.90
37285;DHT22;23172;53.550;9.964;2022-08-19T00:42:28;24.10;67.20
37285;DHT22;23172;53.550;9.964;2022-08-19T00:47:30;24.10;67.00
37285;DHT22;23172;53.550;9.964;2022-08-19T00:52:36;24.10;67.10
37285;DHT22;23172;53.550;9.964;2022-08-19T00:57:44;24.00;67.40
37285;DHT22;23172;53.550;9.964;2022-08-19T01:02:47;24.00;67.50
37285;DHT22;23172;53.550;9.964;2022-08-19T01:07:50;24.00;67.90
37285;DHT22;23172;53.550;9.964;2022-08-19T01:12:55;24.00;67.90
37285;DHT22;23172;53.550;9.964;2022-08-19T01:18:01;24.00;67.90
37285;DHT22;23172;53.550;9.964;2022-08-19T01:23:05;23.90;68.10
37285;DHT22;23172;53.550;9.964;2022-08-19T01:28:07;23.90;68.30
37285;DHT22;23172;53.550;9.964;2022-08-19T01:33:09;23.90;68.50
37285;DHT22;23172;53.550;9.964;2022-08-19T01:38:22;23.90;68.60
37285;DHT22;23172;53.550;9.964;2022-08-19T01:43:25;23.80;68.50
37285;DHT22;23172;53.550;9.964;2022-08-19T01:48:27;23.80;68.80
37285;DHT22;23172;53.550;9.964;2022-08-19T01:53:32;23.80;68.80
37285;DHT22;23172;53.550;9.964;2022-08-19T01:58:38;23.80;68.90
37285;DHT22;23172;53.550;9.964;2022-08-19T02:03:40;23.90;69.10
37285;DHT22;23172;53.550;9.964;2022-08-19T02:08:44;23.80;69.10
37285;DHT22;23172;53.550;9.964;2022-08-19T02:13:48;23.90;69.30
37285;DHT22;23172;53.550;9.964;2022-08-19T02:18:50;23.80;69.40
37285;DHT22;23172;53.550;9.964;2022-08-19T02:23:54;23.70;69.60
37285;DHT22;23172;53.550;9.964;2022-08-19T02:28:56;23.70;70.20
37285;DHT22;23172;53.550;9.964;2022-08-19T02:33:58;23.60;70.70
37285;DHT22;23172;53.550;9.964;2022-08-19T02:39:01;23.50;70.90
37285;DHT22;23172;53.550;9.964;2022-08-19T02:44:03;23.60;71.30
37285;DHT22;23172;53.550;9.964;2022-08-19T02:49:07;23.70;71.30
37285;DHT22;23172;53.550;9.964;2022-08-19T02:54:11;23.60;71.50
37285;DHT22;23172;53.550;9.964;2022-08-19T02:59:14;23.70;71.60
37285;DHT22;23172;53.550;9.964;2022-08-19T03:04:16;23.50;71.70
37285;DHT22;23172;53.550;9.964;2022-08-19T03:09:20;23.60;72.10
37285;DHT22;23172;53.550;9.964;2022-08-19T03:14:21;23.60;72.10
37285;DHT22;23172;53.550;9.964;2022-08-19T03:19:23;23.60;72.20
37285;DHT22;23172;53.550;9.964;2022-08-19T03:24:27;23.40;72.50
37285;DHT22;23172;53.550;9.964;2022-08-19T03:29:31;23.30;73.10
37285;DHT22;23172;53.550;9.964;2022-08-19T03:34:36;23.30;73.50
37285;DHT22;23172;53.550;9.964;2022-08-19T03:39:40;23.30;73.80
37285;DHT22;23172;53.550;9.964;2022-08-19T03:44:42;23.40;74.10
37285;DHT22;23172;53.550;9.964;2022-08-19T03:49:45;23.40;74.00
37285;DHT22;23172;53.550;9.964;2022-08-19T03:54:48;23.50;73.90
37285;DHT22;23172;53.550;9.964;2022-08-19T03:59:50;23.50;73.90
37285;DHT22;23172;53.550;9.964;2022-08-19T04:04:53;23.50;73.90
37285;DHT22;23172;53.550;9.964;2022-08-19T04:09:57;23.50;74.10
37285;DHT22;23172;53.550;9.964;2022-08-19T04:14:59;23.40;74.30
37285;DHT22;23172;53.550;9.964;2022-08-19T04:20:02;23.40;74.60
37285;DHT22;23172;53.550;9.964;2022-08-19T04:25:05;23.40;74.60
37285;DHT22;23172;53.550;9.964;2022-08-19T04:30:08;23.30;74.70
37285;DHT22;23172;53.550;9.964;2022-08-19T04:35:10;23.30;74.80
37285;DHT22;23172;53.550;9.964;2022-08-19T04:40:14;23.30;74.80
37285;DHT22;23172;53.550;9.964;2022-08-19T04:45:36;23.40;75.00
37285;DHT22;23172;53.550;9.964;2022-08-19T04:50:41;23.40;75.10
37285;DHT22;23172;53.550;9.964;2022-08-19T04:55:44;23.40;75.10
37285;DHT22;23172;53.550;9.964;2022-08-19T05:00:46;23.40;75.30
37285;DHT22;23172;53.550;9.964;2022-08-19T05:05:48;23.30;75.50
37285;DHT22;23172;53.550;9.964;2022-08-19T05:10:51;23.20;75.90
37285;DHT22;23172;53.550;9.964;2022-08-19T05:15:54;23.20;76.10
37285;DHT22;23172;53.550;9.964;2022-08-19T05:20:57;23.20;76.30
37285;DHT22;23172;53.550;9.964;2022-08-19T05:26:17;23.20;76.20
37285;DHT22;23172;53.550;9.964;2022-08-19T05:31:19;23.10;76.30
37285;DHT22;23172;53.550;9.964;2022-08-19T05:36:21;23.10;76.40
37285;DHT22;23172;53.550;9.964;2022-08-19T05:41:24;23.10;76.60
37285;DHT22;23172;53.550;9.964;2022-08-19T05:46:29;23.10;76.40
37285;DHT22;23172;53.550;9.964;2022-08-19T05:51:32;23.10;77.30
37285;DHT22;23172;53.550;9.964;2022-08-19T05:56:36;23.10;76.40
37285;DHT22;23172;53.550;9.964;2022-08-19T06:01:40;23.20;76.40
37285;DHT22;23172;53.550;9.964;2022-08-19T06:06:42;23.20;76.30
37285;DHT22;23172;53.550;9.964;2022-08-19T06:11:47;23.10;76.20
37285;DHT22;23172;53.550;9.964;2022-08-19T06:16:49;23.10;76.30
37285;DHT22;23172;53.550;9.964;2022-08-19T06:21:52;23.10;76.40
37285;DHT22;23172;53.550;9.964;2022-08-19T06:26:57;23.00;76.50
37285;DHT22;23172;53.550;9.964;2022-08-19T06:32:01;23.10;76.80
37285;DHT22;23172;53.550;9.964;2022-08-19T06:37:04;23.10;76.50
37285;DHT22;23172;53.550;9.964;2022-08-19T06:42:08;23.00;76.40
37285;DHT22;23172;53.550;9.964;2022-08-19T06:47:15;22.80;76.80
37285;DHT22;23172;53.550;9.964;2022-08-19T06:52:18;22.70;77.20
37285;DHT22;23172;53.550;9.964;2022-08-19T06:57:21;22.60;77.70
37285;DHT22;23172;53.550;9.964;2022-08-19T07:02:23;22.60;77.90
37285;DHT22;23172;53.550;9.964;2022-08-19T07:07:26;22.60;77.90
37285;DHT22;23172;53.550;9.964;2022-08-19T07:12:31;22.60;78.00
37285;DHT22;23172;53.550;9.964;2022-08-19T07:17:34;22.70;77.80
37285;DHT22;23172;53.550;9.964;2022-08-19T07:22:38;22.70;78.00
37285;DHT22;23172;53.550;9.964;2022-08-19T07:27:41;22.70;78.10
37285;DHT22;23172;53.550;9.964;2022-08-19T07:32:44;22.70;78.00
37285;DHT22;23172;53.550;9.964;2022-08-19T07:37:46;22.80;78.20
37285;DHT22;23172;53.550;9.964;2022-08-19T07:42:50;22.90;78.20
37285;DHT22;23172;53.550;9.964;2022-08-19T07:47:52;22.90;77.80
37285;DHT22;23172;53.550;9.964;2022-08-19T07:52:53;23.00;77.60
37285;DHT22;23172;53.550;9.964;2022-08-19T07:57:57;23.00;78.60
37285;DHT22;23172;53.550;9.964;2022-08-19T08:02:59;23.00;77.50
37285;DHT22;23172;53.550;9.964;2022-08-19T08:08:01;23.10;77.00
37285;DHT22;23172;53.550;9.964;2022-08-19T08:13:21;23.20;76.70
37285;DHT22;23172;53.550;9.964;2022-08-19T08:18:23;23.20;76.10
37285;DHT22;23172;53.550;9.964;2022-08-19T08:23:25;23.20;75.90
37285;DHT22;23172;53.550;9.964;2022-08-19T08:28:28;23.20;76.10
37285;DHT22;23172;53.550;9.964;2022-08-19T08:33:30;23.20;75.80
37285;DHT22;23172;53.550;9.964;2022-08-19T08:38:32;23.20;75.90
37285;DHT22;23172;53.550;9.964;2022-08-19T08:43:38;23.20;75.90
37285;DHT22;23172;53.550;9.964;2022-08-19T08:48:54;23.30;75.80
37285;DHT22;23172;53.550;9.964;2022-08-19T08:53:57;23.40;75.60
37285;DHT22;23172;53.550;9.964;2022-08-19T08:59:04;23.40;75.40
37285;DHT22;23172;53.550;9.964;2022-08-19T09:04:10;23.50;75.30
37285;DHT22;23172;53.550;9.964;2022-08-19T09:09:15;23.50;75.20
37285;DHT22;23172;53.550;9.964;2022-08-19T09:14:32;23.50;75.10
37285;DHT22;23172;53.550;9.964;2022-08-19T09:19:36;23.50;75.30
37285;DHT22;23172;53.550;9.964;2022-08-19T09:24:48;23.50;75.30
37285;DHT22;23172;53.550;9.964;2022-08-19T09:29:52;23.50;75.30
37285;DHT22;23172;53.550;9.964;2022-08-19T09:34:55;23.70;75.20
37285;DHT22;23172;53.550;9.964;2022-08-19T09:39:58;23.60;74.80
37285;DHT22;23172;53.550;9.964;2022-08-19T09:45:03;23.60;74.80
37285;DHT22;23172;53.550;9.964;2022-08-19T09:50:07;23.60;74.80
37285;DHT22;23172;53.550;9.964;2022-08-19T09:55:10;23.60;74.70
37285;DHT22;23172;53.550;9.964;2022-08-19T10:00:14;23.70;74.90
37285;DHT22;23172;53.550;9.964;2022-08-19T10:05:16;23.60;74.90
37285;DHT22;23172;53.550;9.964;2022-08-19T10:10:36;23.60;74.90
37285;DHT22;23172;53.550;9.964;2022-08-19T10:15:39;23.50;75.00
37285;DHT22;23172;53.550;9.964;2022-08-19T10:20:41;23.60;75.30
37285;DHT22;23172;53.550;9.964;2022-08-19T10:25:43;23.60;75.30
37285;DHT22;23172;53.550;9.964;2022-08-19T10:30:46;23.70;75.40
37285;DHT22;23172;53.550;9.964;2022-08-19T10:35:48;23.70;75.60
37285;DHT22;23172;53.550;9.964;2022-08-19T10:40:50;23.70;75.70
37285;DHT22;23172;53.550;9.964;2022-08-19T10:45:55;23.80;75.80
37285;DHT22;23172;53.550;9.964;2022-08-19T10:50:59;23.70;75.80
37285;DHT22;23172;53.550;9.964;2022-08-19T10:56:19;23.70;76.00
37285;DHT22;23172;53.550;9.964;2022-08-19T11:01:41;23.60;76.20
37285;DHT22;23172;53.550;9.964;2022-08-19T11:06:43;23.60;76.30
37285;DHT22;23172;53.550;9.964;2022-08-19T11:11:47;23.70;76.40
37285;DHT22;23172;53.550;9.964;2022-08-19T11:16:52;23.70;76.30
37285;DHT22;23172;53.550;9.964;2022-08-19T11:21:57;23.80;76.30
37285;DHT22;23172;53.550;9.964;2022-08-19T11:27:06;23.90;76.40
37285;DHT22;23172;53.550;9.964;2022-08-19T11:32:10;24.00;76.20
37285;DHT22;23172;53.550;9.964;2022-08-19T11:37:13;24.10;76.40
37285;DHT22;23172;53.550;9.964;2022-08-19T11:42:17;24.30;76.00
37285;DHT22;23172;53.550;9.964;2022-08-19T11:47:38;24.40;75.70
37285;DHT22;23172;53.550;9.964;2022-08-19T11:52:40;24.50;75.10
37285;DHT22;23172;53.550;9.964;2022-08-19T11:57:42;24.60;74.60
37285;DHT22;23172;53.550;9.964;2022-08-19T12:02:45;24.60;74.00
37285;DHT22;23172;53.550;9.964;2022-08-19T12:07:47;24.60;73.90
37285;DHT22;23172;53.550;9.964;2022-08-19T12:12:49;24.50;74.40
37285;DHT22;23172;53.550;9.964;2022-08-19T12:17:52;24.50;73.50
37285;DHT22;23172;53.550;9.964;2022-08-19T12:22:56;24.50;73.70
37285;DHT22;23172;53.550;9.964;2022-08-19T12:27:58;24.60;73.90
37285;DHT22;23172;53.550;9.964;2022-08-19T12:33:01;24.80;74.30
37285;DHT22;23172;53.550;9.964;2022-08-19T12:38:03;25.10;73.70
37285;DHT22;23172;53.550;9.964;2022-08-19T12:43:07;25.40;73.20
37285;DHT22;23172;53.550;9.964;2022-08-19T12:48:10;25.60;72.60
37285;DHT22;23172;53.550;9.964;2022-08-19T12:53:14;25.70;71.60
37285;DHT22;23172;53.550;9.964;2022-08-19T12:58:16;25.80;71.00
37285;DHT22;23172;53.550;9.964;2022-08-19T13:03:19;25.80;70.70
37285;DHT22;23172;53.550;9.964;2022-08-19T13:08:23;25.70;70.00
37285;DHT22;23172;53.550;9.964;2022-08-19T13:13:24;25.70;69.70
37285;DHT22;23172;53.550;9.964;2022-08-19T13:18:28;25.70;69.60
37285;DHT22;23172;53.550;9.964;2022-08-19T13:23:30;25.70;69.10
37285;DHT22;23172;53.550;9.964;2022-08-19T13:28:32;25.60;68.80
37285;DHT22;23172;53.550;9.964;2022-08-19T13:33:50;25.60;68.70
37285;DHT22;23172;53.550;9.964;2022-08-19T13:38:51;25.60;68.80
37285;DHT22;23172;53.550;9.964;2022-08-19T13:43:54;25.60;68.50
37285;DHT22;23172;53.550;9.964;2022-08-19T13:48:57;25.60;68.40
37285;DHT22;23172;53.550;9.964;2022-08-19T13:53:59;25.60;68.40
37285;DHT22;23172;53.550;9.964;2022-08-19T13:59:01;25.60;68.30
37285;DHT22;23172;53.550;9.964;2022-08-19T14:04:04;25.60;68.10
37285;DHT22;23172;53.550;9.964;2022-08-19T14:09:06;25.60;67.90
37285;DHT22;23172;53.550;9.964;2022-08-19T14:14:10;25.60;67.50
37285;DHT22;23172;53.550;9.964;2022-08-19T14:19:13;25.60;67.50
37285;DHT22;23172;53.550;9.964;2022-08-19T14:24:15;25.60;67.50
37285;DHT22;23172;53.550;9.964;2022-08-19T14:29:17;25.50;67.60
37285;DHT22;23172;53.550;9.964;2022-08-19T14:34:20;25.50;67.60
37285;DHT22;23172;53.550;9.964;2022-08-19T14:39:22;25.60;67.70
37285;DHT22;23172;53.550;9.964;2022-08-19T14:44:24;25.60;67.40
37285;DHT22;23172;53.550;9.964;2022-08-19T14:49:27;25.80;67.50
37285;DHT22;23172;53.550;9.964;2022-08-19T14:54:29;25.80;67.00
37285;DHT22;23172;53.550;9.964;2022-08-19T14:59:31;25.80;66.60
37285;DHT22;23172;53.550;9.964;2022-08-19T15:04:34;25.80;66.40
37285;DHT22;23172;53.550;9.964;2022-08-19T15:09:36;25.90;66.40
37285;DHT22;23172;53.550;9.964;2022-08-19T15:14:38;25.90;66.20
37285;DHT22;23172;53.550;9.964;2022-08-19T15:19:44;25.90;66.00
37285;DHT22;23172;53.550;9.964;2022-08-19T15:24:45;26.00;65.90
37285;DHT22;23172;53.550;9.964;2022-08-19T15:29:47;26.00;65.80
37285;DHT22;23172;53.550;9.964;2022-08-19T15:34:51;26.00;65.80
37285;DHT22;23172;53.550;9.964;2022-08-19T15:39:53;26.00;65.50
37285;DHT22;23172;53.550;9.964;2022-08-19T15:44:55;26.00;65.20
37285;DHT22;23172;53.550;9.964;2022-08-19T15:49:58;26.10;64.80
37285;DHT22;23172;53.550;9.964;2022-08-19T15:55:00;26.10;64.50
37285;DHT22;23172;53.550;9.964;2022-08-19T16:00:04;26.10;64.00
37285;DHT22;23172;53.550;9.964;2022-08-19T16:05:25;26.10;63.60
37285;DHT22;23172;53.550;9.964;2022-08-19T16:10:44;26.10;63.10
37285;DHT22;23172;53.550;9.964;2022-08-19T16:15:46;26.00;62.80
37285;DHT22;23172;53.550;9.964;2022-08-19T16:20:50;26.00;62.60
37285;DHT22;23172;53.550;9.964;2022-08-19T16:25:52;26.00;62.10
37285;DHT22;23172;53.550;9.964;2022-08-19T16:30:53;26.00;61.90
37285;DHT22;23172;53.550;9.964;2022-08-19T16:35:58;25.90;61.70
37285;DHT22;23172;53.550;9.964;2022-08-19T16:41:00;25.90;61.70
37285;DHT22;23172;53.550;9.964;2022-08-19T16:46:02;26.00;61.90
37285;DHT22;23172;53.550;9.964;2022-08-19T16:51:05;25.90;61.40
37285;DHT22;23172;53.550;9.964;2022-08-19T16:56:09;25.90;61.30
37285;DHT22;23172;53.550;9.964;2022-08-19T17:01:11;25.80;61.20
37285;DHT22;23172;53.550;9.964;2022-08-19T17:06:16;25.70;61.10
37285;DHT22;23172;53.550;9.964;2022-08-19T17:11:20;25.70;61.20
37285;DHT22;23172;53.550;9.964;2022-08-19T17:16:25;25.60;61.30
37285;DHT22;23172;53.550;9.964;2022-08-19T17:21:30;25.60;61.40
37285;DHT22;23172;53.550;9.964;2022-08-19T17:26:32;25.50;61.40
37285;DHT22;23172;53.550;9.964;2022-08-19T17:31:35;25.40;61.50
37285;DHT22;23172;53.550;9.964;2022-08-19T17:36:38;25.40;61.50
37285;DHT22;23172;53.550;9.964;2022-08-19T17:41:40;25.40;61.60
37285;DHT22;23172;53.550;9.964;2022-08-19T17:46:42;25.40;61.60
37285;DHT22;23172;53.550;9.964;2022-08-19T17:51:46;25.40;61.80
37285;DHT22;23172;53.550;9.964;2022-08-19T17:56:49;25.40;62.10
37285;DHT22;23172;53.550;9.964;2022-08-19T18:01:51;25.40;62.30
37285;DHT22;23172;53.550;9.964;2022-08-19T18:06:54;25.30;62.60
37285;DHT22;23172;53.550;9.964;2022-08-19T18:11:59;25.30;62.80
37285;DHT22;23172;53.550;9.964;2022-08-19T18:17:04;25.30;63.20
37285;DHT22;23172;53.550;9.964;2022-08-19T18:22:11;25.20;63.40
37285;DHT22;23172;53.550;9.964;2022-08-19T18:27:13;25.10;63.60
37285;DHT22;23172;53.550;9.964;2022-08-19T18:32:16;25.00;63.70
37285;DHT22;23172;53.550;9.964;2022-08-19T18:37:20;25.00;63.80
37285;DHT22;23172;53.550;9.964;2022-08-19T18:42:22;24.90;63.90
37285;DHT22;23172;53.550;9.964;2022-08-19T18:47:41;24.90;63.90
37285;DHT22;23172;53.550;9.964;2022-08-19T18:53:02;24.90;63.90
37285;DHT22;23172;53.550;9.964;2022-08-19T18:58:04;24.80;63.90
37285;DHT22;23172;53.550;9.964;2022-08-19T19:03:06;24.80;64.10
37285;DHT22;23172;53.550;9.964;2022-08-19T19:08:11;24.70;64.20
37285;DHT22;23172;53.550;9.964;2022-08-19T19:13:16;24.60;64.50
37285;DHT22;23172;53.550;9.964;2022-08-19T19:18:18;24.50;64.60
37285;DHT22;23172;53.550;9.964;2022-08-19T19:23:21;24.40;64.80
37285;DHT22;23172;53.550;9.964;2022-08-19T19:28:23;24.40;64.90
37285;DHT22;23172;53.550;9.964;2022-08-19T19:33:27;24.50;65.00
37285;DHT22;23172;53.550;9.964;2022-08-19T19:38:30;24.50;65.10
37285;DHT22;23172;53.550;9.964;2022-08-19T19:43:32;24.50;65.20
37285;DHT22;23172;53.550;9.964;2022-08-19T19:48:34;24.50;65.30
37285;DHT22;23172;53.550;9.964;2022-08-19T19:53:39;24.40;65.30
37285;DHT22;23172;53.550;9.964;2022-08-19T19:58:41;24.40;65.60
37285;DHT22;23172;53.550;9.964;2022-08-19T20:03:43;24.40;65.70
37285;DHT22;23172;53.550;9.964;2022-08-19T20:08:47;24.40;65.80
37285;DHT22;23172;53.550;9.964;2022-08-19T20:14:08;24.40;65.90
37285;DHT22;23172;53.550;9.964;2022-08-19T20:19:13;24.40;66.00
37285;DHT22;23172;53.550;9.964;2022-08-19T20:24:21;24.40;66.10
37285;DHT22;23172;53.550;9.964;2022-08-19T20:29:22;24.40;66.20
37285;DHT22;23172;53.550;9.964;2022-08-19T20:34:24;24.40;66.20
37285;DHT22;23172;53.550;9.964;2022-08-19T20:39:28;24.40;66.30
37285;DHT22;23172;53.550;9.964;2022-08-19T20:44:30;24.40;66.30
37285;DHT22;23172;53.550;9.964;2022-08-19T20:49:32;24.40;66.40
37285;DHT22;23172;53.550;9.964;2022-08-19T20:54:36;24.40;66.40
37285;DHT22;23172;53.550;9.964;2022-08-19T20:59:37;24.30;66.50
37285;DHT22;23172;53.550;9.964;2022-08-19T21:04:39;24.20;66.70
37285;DHT22;23172;53.550;9.964;2022-08-19T21:09:43;24.10;66.90
37285;DHT22;23172;53.550;9.964;2022-08-19T21:14:45;24.10;67.00
37285;DHT22;23172;53.550;9.964;2022-08-19T21:19:47;24.10;67.20
37285;DHT22;23172;53.550;9.964;2022-08-19T21:24:50;24.10;67.10
37285;DHT22;23172;53.550;9.964;2022-08-19T21:29:52;24.00;67.10
37285;DHT22;23172;53.550;9.964;2022-08-19T21:34:54;24.00;67.20
37285;DHT22;23172;53.550;9.964;2022-08-19T21:39:57;24.00;67.30
37285;DHT22;23172;53.550;9.964;2022-08-19T21:44:59;24.00;67.40
37285;DHT22;23172;53.550;9.964;2022-08-19T21:50:02;24.00;67.40
37285;DHT22;23172;53.550;9.964;2022-08-19T21:55:07;24.00;67.50
37285;DHT22;23172;53.550;9.964;2022-08-19T22:00:13;24.00;67.60
37285;DHT22;23172;53.550;9.964;2022-08-19T22:05:16;23.90;67.60
37285;DHT22;23172;53.550;9.964;2022-08-19T22:10:24;24.00;68.40
37285;DHT22;23172;53.550;9.964;2022-08-19T22:15:27;23.90;67.50
37285;DHT22;23172;53.550;9.964;2022-08-19T22:20:30;23.90;67.50
37285;DHT22;23172;53.550;9.964;2022-08-19T22:25:38;23.90;67.50
37285;DHT22;23172;53.550;9.964;2022-08-19T22:30:42;23.90;67.50
37285;DHT22;23172;53.550;9.964;2022-08-19T22:35:45;23.90;67.60
37285;DHT22;23172;53.550;9.964;2022-08-19T22:40:50;23.90;67.70
37285;DHT22;23172;53.550;9.964;2022-08-19T22:45:54;23.90;67.70
37285;DHT22;23172;53.550;9.964;2022-08-19T22:50:56;23.90;67.70
37285;DHT22;23172;53.550;9.964;2022-08-19T22:56:18;23.90;67.70
37285;DHT22;23172;53.550;9.964;2022-08-19T23:01:21;23.90;67.70
37285;DHT22;23172;53.550;9.964;2022-08-19T23:06:24;23.90;67.70
37285;DHT22;23172;53.550;9.964;2022-08-19T23:11:27;23.90;67.70
37285;DHT22;23172;53.550;9.964;2022-08-19T23:16:29;23.90;67.50
37285;DHT22;23172;53.550;9.964;2022-08-19T23:21:31;23.90;67.40
37285;DHT22;23172;53.550;9.964;2022-08-19T23:26:37;23.90;67.30
37285;DHT22;23172;53.550;9.964;2022-08-19T23:31:59;24.00;67.30
37285;DHT22;23172;53.550;9.964;2022-08-19T23:37:02;24.00;67.00
37285;DHT22;23172;53.550;9.964;2022-08-19T23:42:09;24.00;66.70
37285;DHT22;23172;53.550;9.964;2022-08-19T23:47:11;24.00;66.40
37285;DHT22;23172;53.550;9.964;2022-08-19T23:52:13;24.00;66.00
37285;DHT22;23172;53.550;9.964;2022-08-19T23:57:17;24.00;65.80
